Aeroporto :
LOGIN :

Iscrizione | Disclaimer

   EN    FR    IT 

 










Sommario :    VFR   VFR Marginale   IFR   IFR Intensivo   IFR Molto Intensivo
Visibilità : 
Base nubi : 
>= 8 km
>= 3000ft
5 / 8 km
1000 / 3000 ft
1500m / 5 km
500 / 1000 ft
800 / 1500m
200 / 500 ft
< 800m
< 200 ft
Simboli :   Temporali  Nebbia  Neve Forte  Precipitazioni Forti  Vento > 20 kt
SIGMETs :   Varie  Temporali  Ghiacco  Turbolenza  Onda orograficha  Ceneri Vulcaniche






- Altitudine del aeroporto : 355 ft
- Codice IATA : VBS


LIPO - Montichiari - Brescia

ULTIMO METAR :
  • 210050Z AUTO VRB01KT 0000 R32/0175N FZFG VV001 M02/M02 Q1019

METARs OBSOLETI :
  • 210020Z AUTO VRB02KT 0200 R32/0400D FZFG SCT001/// SCT005/// M01/M01 Q1019
  • 202350Z AUTO VRB01KT 0900 R32/1400U FZFG SCT002 M03/M03 Q1019
  • 202320Z AUTO VRB01KT 0100 R32/0350N FZFG VV002 M03/M03 Q1019 RESN
  • 202250Z AUTO 10004KT 060V120 0050 R32/0250N FZFG VV001 M03/M03 Q1019 RESN
  • 202220Z AUTO VRB02KT 0050 R32/0275N FZFG VV001 M03/M03 Q1019

TAF TAF LIPO
Valido dal 21 a 00 ore il 22 a 00 ore UTC


202300Z 2100/2124 VRB05KT 0100 FZFG BKN001
BECMG 2108/2110 2000 BR SCT010
BECMG 2111/2113 6000
BECMG 2115/2117 1500 BR
BECMG 2119/2121 0400 FZFG BKN002



MetMap, La meteo Aeronautica in un colpo d'occhio ! - Copyright ORBIFLY Dicembre 2007 - Disclaimer

ORBIFLY MET'MAP TEAM :

Programmazione e sviluppo : Alexandra Zaïnal
Concezione : Baudouin d'Aumeries
Aiuto per la programmazione : Marc-Olivier Méhu
Supporto tecnico e logistico : Manuel Goepfert
Aiuto per la traduzione : Arnaldo La Scala

Contatto : metmap@orbifly.com




FONTI E CREDITI :

   NOAA